Weather at Nan-Gang Police District Helipad

Public forecast

Using degrees Celsius for public forecast. Weather courtesy of forecast.io.

Closest aviation weather report (METAR) to Nan-Gang Police District Helipad

Closest report is Taipei Songshan Airport, 2.5 nm (4.6 km) WNW. Retrieved 2021/01/23 07:30 UTC (30 minutes ago):

RCSS 230730Z 28008KT 9999 FEW012 23/19 Q1012 NOSIG RMK 29007KT/R10 A2989

Closest aviation forecast (TAF) to Nan-Gang Police District Helipad

Closest forecast is Taipei Songshan Airport, 2.5 nm (4.6 km) WNW. Retrieved 2021/01/23 06:00 UTC (2 hours ago):

TAF RCSS 230500Z 2306/2406 09009KT 9999 FEW016 BKN032 TEMPO 2306/2312 27007KT FEW010 BKN020 TEMPO 2318/2324 09005KT FEW010 BKN020 TEMPO 2400/2406 09014KT